sensor_id;sensor_type;location;lat;lon;timestamp;pressure;altitude;pressure_sealevel;temperature;humidity
70015;BME280;57358;51.094;6.760;2023-02-28T00:00:35;102525.03;;;-2.20;90.44
70015;BME280;57358;51.094;6.760;2023-02-28T00:03:02;102667.75;;;-1.21;90.04
70015;BME280;57358;51.094;6.760;2023-02-28T00:05:30;102664.03;;;-1.31;90.48
70015;BME280;57358;51.094;6.760;2023-02-28T00:07:56;102552.84;;;-2.07;89.80
70015;BME280;57358;51.094;6.760;2023-02-28T00:10:27;102615.53;;;-1.76;90.75
70015;BME280;57358;51.094;6.760;2023-02-28T00:12:58;102639.50;;;-1.77;90.44
70015;BME280;57358;51.094;6.760;2023-02-28T00:15:25;102633.94;;;-1.92;91.08
70015;BME280;57358;51.094;6.760;2023-02-28T00:17:52;102635.47;;;-1.97;91.91
70015;BME280;57358;51.094;6.760;2023-02-28T00:20:19;102641.47;;;-1.97;93.67
70015;BME280;57358;51.094;6.760;2023-02-28T00:22:48;102658.50;;;-2.01;95.62
70015;BME280;57358;51.094;6.760;2023-02-28T00:25:17;102656.72;;;-2.03;96.88
70015;BME280;57358;51.094;6.760;2023-02-28T00:27:44;102555.63;;;-2.56;96.45
70015;BME280;57358;51.094;6.760;2023-02-28T00:30:14;102676.97;;;-1.87;97.68
70015;BME280;57358;51.094;6.760;2023-02-28T00:32:41;102656.91;;;-1.97;97.43
70015;BME280;57358;51.094;6.760;2023-02-28T00:35:08;102656.34;;;-1.88;98.04
70015;BME280;57358;51.094;6.760;2023-02-28T00:37:35;102667.63;;;-1.83;97.10
70015;BME280;57358;51.094;6.760;2023-02-28T00:40:04;102619.56;;;-2.13;96.92
70015;BME280;57358;51.094;6.760;2023-02-28T00:42:35;102625.97;;;-2.00;96.60
70015;BME280;57358;51.094;6.760;2023-02-28T00:45:02;102677.50;;;-1.70;96.85
70015;BME280;57358;51.094;6.760;2023-02-28T00:47:32;102673.25;;;-1.68;96.80
70015;BME280;57358;51.094;6.760;2023-02-28T00:49:59;102660.84;;;-1.81;96.92
70015;BME280;57358;51.094;6.760;2023-02-28T00:52:26;102549.28;;;-2.41;97.20
70015;BME280;57358;51.094;6.760;2023-02-28T00:54:52;102561.34;;;-2.38;97.86
70015;BME280;57358;51.094;6.760;2023-02-28T00:57:19;102585.69;;;-2.27;97.51
70015;BME280;57358;51.094;6.760;2023-02-28T00:59:45;102529.53;;;-2.69;98.72
70015;BME280;57358;51.094;6.760;2023-02-28T01:02:12;102588.78;;;-2.38;98.44
70015;BME280;57358;51.094;6.760;2023-02-28T01:04:38;102618.34;;;-2.24;99.06
70015;BME280;57358;51.094;6.760;2023-02-28T01:07:04;102681.09;;;-1.92;99.70
70015;BME280;57358;51.094;6.760;2023-02-28T01:09:31;102612.06;;;-2.34;100.00
70015;BME280;57358;51.094;6.760;2023-02-28T01:11:57;102657.03;;;-2.21;100.00
70015;BME280;57358;51.094;6.760;2023-02-28T01:14:24;102671.91;;;-2.11;100.00
70015;BME280;57358;51.094;6.760;2023-02-28T01:16:50;102676.25;;;-2.10;100.00
70015;BME280;57358;51.094;6.760;2023-02-28T01:19:17;102594.41;;;-2.49;100.00
70015;BME280;57358;51.094;6.760;2023-02-28T01:21:44;102684.59;;;-1.90;100.00
70015;BME280;57358;51.094;6.760;2023-02-28T01:24:10;102690.63;;;-1.89;100.00
70015;BME280;57358;51.094;6.760;2023-02-28T01:26:37;102581.53;;;-2.50;100.00
70015;BME280;57358;51.094;6.760;2023-02-28T01:29:03;102489.94;;;-3.01;100.00
70015;BME280;57358;51.094;6.760;2023-02-28T01:31:29;102670.72;;;-1.95;100.00
70015;BME280;57358;51.094;6.760;2023-02-28T01:33:56;102569.56;;;-2.50;100.00
70015;BME280;57358;51.094;6.760;2023-02-28T01:36:24;102666.47;;;-1.94;100.00
70015;BME280;57358;51.094;6.760;2023-02-28T01:38:51;102661.38;;;-1.91;100.00
70015;BME280;57358;51.094;6.760;2023-02-28T01:41:21;102668.56;;;-1.81;100.00
70015;BME280;57358;51.094;6.760;2023-02-28T01:46:14;102645.66;;;-2.01;100.00
70015;BME280;57358;51.094;6.760;2023-02-28T01:48:50;102663.97;;;-1.91;100.00
70015;BME280;57358;51.094;6.760;2023-02-28T01:51:22;102631.75;;;-2.07;100.00
70015;BME280;57358;51.094;6.760;2023-02-28T01:53:52;102583.47;;;-2.43;100.00
70015;BME280;57358;51.094;6.760;2023-02-28T01:56:25;102655.19;;;-1.98;100.00
70015;BME280;57358;51.094;6.760;2023-02-28T01:58:54;102607.97;;;-2.27;100.00
70015;BME280;57358;51.094;6.760;2023-02-28T02:01:21;102542.94;;;-2.52;100.00
70015;BME280;57358;51.094;6.760;2023-02-28T02:03:50;102591.72;;;-2.26;100.00
70015;BME280;57358;51.094;6.760;2023-02-28T02:06:23;102647.91;;;-1.83;100.00
70015;BME280;57358;51.094;6.760;2023-02-28T02:08:50;102642.56;;;-1.90;100.00
70015;BME280;57358;51.094;6.760;2023-02-28T02:11:19;102638.84;;;-1.98;100.00
70015;BME280;57358;51.094;6.760;2023-02-28T02:19:22;102634.06;;;-1.88;100.00
70015;BME280;57358;51.094;6.760;2023-02-28T02:35:24;102545.47;;;-2.79;100.00
70015;BME280;57358;51.094;6.760;2023-02-28T02:38:30;102549.03;;;-2.75;100.00
70015;BME280;57358;51.094;6.760;2023-02-28T02:44:10;102573.44;;;-2.63;100.00
70015;BME280;57358;51.094;6.760;2023-02-28T02:46:42;102581.44;;;-2.53;100.00
70015;BME280;57358;51.094;6.760;2023-02-28T02:49:15;102613.78;;;-2.33;100.00
70015;BME280;57358;51.094;6.760;2023-02-28T02:51:44;102558.72;;;-2.67;100.00
70015;BME280;57358;51.094;6.760;2023-02-28T02:54:25;102612.53;;;-2.46;100.00
70015;BME280;57358;51.094;6.760;2023-02-28T02:56:57;102569.31;;;-2.83;100.00
70015;BME280;57358;51.094;6.760;2023-02-28T02:59:26;102532.59;;;-3.06;100.00
70015;BME280;57358;51.094;6.760;2023-02-28T03:02:00;102528.78;;;-3.17;100.00
70015;BME280;57358;51.094;6.760;2023-02-28T03:04:32;102533.84;;;-3.21;100.00
70015;BME280;57358;51.094;6.760;2023-02-28T03:07:01;102604.31;;;-2.87;100.00
70015;BME280;57358;51.094;6.760;2023-02-28T03:09:27;102607.34;;;-2.98;100.00
70015;BME280;57358;51.094;6.760;2023-02-28T03:11:55;102563.34;;;-3.33;100.00
70015;BME280;57358;51.094;6.760;2023-02-28T03:17:17;102601.69;;;-3.14;100.00
70015;BME280;57358;51.094;6.760;2023-02-28T03:20:09;102508.09;;;-3.72;100.00
70015;BME280;57358;51.094;6.760;2023-02-28T03:22:46;102608.09;;;-3.01;100.00
70015;BME280;57358;51.094;6.760;2023-02-28T03:25:34;102516.22;;;-3.59;100.00
70015;BME280;57358;51.094;6.760;2023-02-28T03:28:16;102537.19;;;-3.47;100.00
70015;BME280;57358;51.094;6.760;2023-02-28T03:31:18;102546.72;;;-3.43;100.00
70015;BME280;57358;51.094;6.760;2023-02-28T03:36:29;102506.00;;;-3.82;100.00
70015;BME280;57358;51.094;6.760;2023-02-28T03:39:04;102456.44;;;-4.05;100.00
70015;BME280;57358;51.094;6.760;2023-02-28T03:41:38;102520.84;;;-3.73;100.00
70015;BME280;57358;51.094;6.760;2023-02-28T03:44:13;102256.16;;;-5.35;100.00
70015;BME280;57358;51.094;6.760;2023-02-28T03:46:51;102519.66;;;-3.83;100.00
70015;BME280;57358;51.094;6.760;2023-02-28T03:49:23;102548.38;;;-3.69;100.00
70015;BME280;57358;51.094;6.760;2023-02-28T03:51:52;102601.56;;;-3.41;100.00
70015;BME280;57358;51.094;6.760;2023-02-28T03:54:25;102521.13;;;-3.90;100.00
70015;BME280;57358;51.094;6.760;2023-02-28T03:57:28;102605.72;;;-3.45;100.00
70015;BME280;57358;51.094;6.760;2023-02-28T04:00:05;102528.00;;;-3.89;100.00
70015;BME280;57358;51.094;6.760;2023-02-28T04:02:33;102588.63;;;-3.44;100.00
70015;BME280;57358;51.094;6.760;2023-02-28T04:05:00;102587.56;;;-3.49;100.00
70015;BME280;57358;51.094;6.760;2023-02-28T04:07:30;102607.19;;;-3.27;100.00
70015;BME280;57358;51.094;6.760;2023-02-28T04:09:57;102594.47;;;-3.48;100.00
70015;BME280;57358;51.094;6.760;2023-02-28T04:12:24;102534.75;;;-3.68;100.00
70015;BME280;57358;51.094;6.760;2023-02-28T04:14:51;102544.13;;;-3.69;100.00
70015;BME280;57358;51.094;6.760;2023-02-28T04:17:17;102598.84;;;-3.22;100.00
70015;BME280;57358;51.094;6.760;2023-02-28T04:19:44;102622.72;;;-3.00;100.00
70015;BME280;57358;51.094;6.760;2023-02-28T04:22:11;102615.06;;;-2.98;100.00
70015;BME280;57358;51.094;6.760;2023-02-28T04:24:37;102578.28;;;-3.22;100.00
70015;BME280;57358;51.094;6.760;2023-02-28T04:27:08;102623.50;;;-3.01;100.00
70015;BME280;57358;51.094;6.760;2023-02-28T04:29:35;102622.72;;;-3.00;100.00
70015;BME280;57358;51.094;6.760;2023-02-28T04:32:02;102545.88;;;-3.44;100.00
70015;BME280;57358;51.094;6.760;2023-02-28T04:34:31;102568.38;;;-3.36;100.00
70015;BME280;57358;51.094;6.760;2023-02-28T04:36:58;102625.47;;;-2.94;100.00
70015;BME280;57358;51.094;6.760;2023-02-28T04:39:38;102625.56;;;-2.91;100.00
70015;BME280;57358;51.094;6.760;2023-02-28T04:42:05;102585.41;;;-3.14;100.00
70015;BME280;57358;51.094;6.760;2023-02-28T04:44:32;102578.22;;;-3.23;100.00
70015;BME280;57358;51.094;6.760;2023-02-28T04:46:58;102573.22;;;-3.44;100.00
70015;BME280;57358;51.094;6.760;2023-02-28T04:49:25;102539.22;;;-3.63;100.00
70015;BME280;57358;51.094;6.760;2023-02-28T04:51:51;102558.13;;;-3.59;100.00
70015;BME280;57358;51.094;6.760;2023-02-28T04:54:19;102512.13;;;-3.78;100.00
70015;BME280;57358;51.094;6.760;2023-02-28T04:56:45;102625.81;;;-3.09;100.00
70015;BME280;57358;51.094;6.760;2023-02-28T04:59:11;102568.38;;;-3.36;100.00
70015;BME280;57358;51.094;6.760;2023-02-28T05:01:38;102603.81;;;-3.26;100.00
70015;BME280;57358;51.094;6.760;2023-02-28T05:04:04;102509.50;;;-3.80;100.00
70015;BME280;57358;51.094;6.760;2023-02-28T05:06:33;102630.00;;;-3.11;100.00
70015;BME280;57358;51.094;6.760;2023-02-28T05:09:00;102520.69;;;-3.78;100.00
70015;BME280;57358;51.094;6.760;2023-02-28T05:11:32;102482.38;;;-3.97;100.00
70015;BME280;57358;51.094;6.760;2023-02-28T05:14:09;102620.53;;;-3.13;100.00
70015;BME280;57358;51.094;6.760;2023-02-28T05:16:36;102407.22;;;-4.43;100.00
70015;BME280;57358;51.094;6.760;2023-02-28T05:19:02;102615.09;;;-3.21;100.00
70015;BME280;57358;51.094;6.760;2023-02-28T05:21:32;102530.13;;;-3.77;100.00
70015;BME280;57358;51.094;6.760;2023-02-28T05:24:08;102589.22;;;-3.51;100.00
70015;BME280;57358;51.094;6.760;2023-02-28T05:26:41;102616.88;;;-3.44;100.00
70015;BME280;57358;51.094;6.760;2023-02-28T05:29:10;102621.88;;;-3.47;100.00
70015;BME280;57358;51.094;6.760;2023-02-28T05:31:37;102621.78;;;-3.50;100.00
70015;BME280;57358;51.094;6.760;2023-02-28T05:34:04;102534.50;;;-3.98;100.00
70015;BME280;57358;51.094;6.760;2023-02-28T05:36:31;102603.63;;;-3.55;100.00
70015;BME280;57358;51.094;6.760;2023-02-28T05:38:57;102390.53;;;-4.78;100.00
70015;BME280;57358;51.094;6.760;2023-02-28T05:41:24;102610.47;;;-3.55;100.00
70015;BME280;57358;51.094;6.760;2023-02-28T05:43:52;102614.31;;;-3.44;100.00
70015;BME280;57358;51.094;6.760;2023-02-28T05:46:18;102609.94;;;-3.47;100.00
70015;BME280;57358;51.094;6.760;2023-02-28T05:48:47;102538.78;;;-3.97;100.00
70015;BME280;57358;51.094;6.760;2023-02-28T05:51:13;102582.66;;;-3.67;100.00
70015;BME280;57358;51.094;6.760;2023-02-28T05:53:40;102614.16;;;-3.47;100.00
70015;BME280;57358;51.094;6.760;2023-02-28T05:56:09;102613.38;;;-3.46;100.00
70015;BME280;57358;51.094;6.760;2023-02-28T05:58:35;102550.84;;;-3.95;100.00
70015;BME280;57358;51.094;6.760;2023-02-28T06:04:01;102515.38;;;-4.29;100.00
70015;BME280;57358;51.094;6.760;2023-02-28T06:06:28;102597.66;;;-3.78;100.00
70015;BME280;57358;51.094;6.760;2023-02-28T06:09:04;102572.66;;;-4.06;100.00
70015;BME280;57358;51.094;6.760;2023-02-28T06:11:31;102609.50;;;-3.82;100.00
70015;BME280;57358;51.094;6.760;2023-02-28T06:13:59;102603.25;;;-3.88;100.00
70015;BME280;57358;51.094;6.760;2023-02-28T06:16:29;102617.09;;;-3.85;100.00
70015;BME280;57358;51.094;6.760;2023-02-28T06:19:02;102584.25;;;-3.93;100.00
70015;BME280;57358;51.094;6.760;2023-02-28T06:21:29;102571.13;;;-4.01;100.00
70015;BME280;57358;51.094;6.760;2023-02-28T06:23:57;102628.56;;;-3.51;100.00
70015;BME280;57358;51.094;6.760;2023-02-28T06:26:24;102545.53;;;-3.99;100.00
70015;BME280;57358;51.094;6.760;2023-02-28T06:28:51;102615.44;;;-3.60;100.00
70015;BME280;57358;51.094;6.760;2023-02-28T06:31:18;102628.00;;;-3.44;100.00
70015;BME280;57358;51.094;6.760;2023-02-28T06:33:45;102625.56;;;-3.41;100.00
70015;BME280;57358;51.094;6.760;2023-02-28T06:36:13;102627.44;;;-3.35;100.00
70015;BME280;57358;51.094;6.760;2023-02-28T06:38:40;102339.97;;;-5.07;100.00
70015;BME280;57358;51.094;6.760;2023-02-28T06:41:08;102531.09;;;-3.97;100.00
70015;BME280;57358;51.094;6.760;2023-02-28T06:43:38;102602.88;;;-3.52;100.00
70015;BME280;57358;51.094;6.760;2023-02-28T06:46:07;102613.75;;;-3.35;100.00
70015;BME280;57358;51.094;6.760;2023-02-28T06:48:34;102537.56;;;-3.85;100.00
70015;BME280;57358;51.094;6.760;2023-02-28T06:51:10;102632.34;;;-3.18;100.00
70015;BME280;57358;51.094;6.760;2023-02-28T06:53:37;102654.69;;;-3.16;99.45
70015;BME280;57358;51.094;6.760;2023-02-28T06:56:06;102636.13;;;-3.07;97.90
70015;BME280;57358;51.094;6.760;2023-02-28T06:58:34;102625.00;;;-3.08;96.71
70015;BME280;57358;51.094;6.760;2023-02-28T07:01:01;102614.88;;;-3.03;96.66
70015;BME280;57358;51.094;6.760;2023-02-28T07:03:28;102633.41;;;-2.88;96.14
70015;BME280;57358;51.094;6.760;2023-02-28T07:05:54;102608.22;;;-2.98;95.70
70015;BME280;57358;51.094;6.760;2023-02-28T07:08:28;102568.16;;;-3.18;95.07
70015;BME280;57358;51.094;6.760;2023-02-28T07:10:55;102575.75;;;-2.96;94.62
70015;BME280;57358;51.094;6.760;2023-02-28T07:13:22;102572.78;;;-2.83;92.97
70015;BME280;57358;51.094;6.760;2023-02-28T07:16:00;102644.09;;;-2.23;92.58
70015;BME280;57358;51.094;6.760;2023-02-28T07:18:27;102608.63;;;-2.33;91.49
70015;BME280;57358;51.094;6.760;2023-02-28T07:20:54;102552.38;;;-2.51;90.16
70015;BME280;57358;51.094;6.760;2023-02-28T07:23:21;102632.09;;;-1.96;89.56
70015;BME280;57358;51.094;6.760;2023-02-28T07:25:49;102615.75;;;-1.97;88.26
70015;BME280;57358;51.094;6.760;2023-02-28T07:28:15;102619.03;;;-1.74;87.33
70015;BME280;57358;51.094;6.760;2023-02-28T07:30:42;102624.44;;;-1.65;87.10
70015;BME280;57358;51.094;6.760;2023-02-28T07:33:11;102619.66;;;-1.52;84.64
70015;BME280;57358;51.094;6.760;2023-02-28T07:35:37;102530.28;;;-1.87;83.98
70015;BME280;57358;51.094;6.760;2023-02-28T07:38:04;102498.41;;;-1.92;82.71
70015;BME280;57358;51.094;6.760;2023-02-28T07:40:30;102586.94;;;-1.25;81.37
70015;BME280;57358;51.094;6.760;2023-02-28T07:42:59;102573.44;;;-1.16;80.35
70015;BME280;57358;51.094;6.760;2023-02-28T07:45:26;102554.72;;;-1.09;78.62
70015;BME280;57358;51.094;6.760;2023-02-28T07:47:55;102542.63;;;-1.11;77.98
70015;BME280;57358;51.094;6.760;2023-02-28T07:50:24;102500.91;;;-1.31;77.57
70015;BME280;57358;51.094;6.760;2023-02-28T07:52:52;102486.31;;;-1.31;77.83
70015;BME280;57358;51.094;6.760;2023-02-28T07:55:18;102500.75;;;-1.04;75.69
70015;BME280;57358;51.094;6.760;2023-02-28T07:57:45;102511.66;;;-0.79;74.33
70015;BME280;57358;51.094;6.760;2023-02-28T08:00:12;102523.97;;;-0.66;74.40
70015;BME280;57358;51.094;6.760;2023-02-28T08:02:39;102522.53;;;-0.55;73.21
70015;BME280;57358;51.094;6.760;2023-02-28T08:05:07;102507.19;;;-0.49;72.93
70015;BME280;57358;51.094;6.760;2023-02-28T08:07:34;102449.19;;;-0.68;72.12
70015;BME280;57358;51.094;6.760;2023-02-28T08:10:00;102414.78;;;-0.68;70.61
70015;BME280;57358;51.094;6.760;2023-02-28T08:12:26;102447.22;;;-0.40;70.95
70015;BME280;57358;51.094;6.760;2023-02-28T08:14:53;102404.84;;;-0.51;70.12
70015;BME280;57358;51.094;6.760;2023-02-28T08:17:19;102453.38;;;-0.33;69.85
70015;BME280;57358;51.094;6.760;2023-02-28T08:19:46;102392.13;;;-0.44;69.31
70015;BME280;57358;51.094;6.760;2023-02-28T08:22:13;102441.38;;;0.13;67.83
70015;BME280;57358;51.094;6.760;2023-02-28T08:24:41;102439.84;;;0.23;68.16
70015;BME280;57358;51.094;6.760;2023-02-28T08:27:09;102220.91;;;-0.94;67.48
70015;BME280;57358;51.094;6.760;2023-02-28T08:29:38;102367.09;;;-0.04;66.99
70015;BME280;57358;51.094;6.760;2023-02-28T08:32:06;102401.63;;;0.52;65.98
70015;BME280;57358;51.094;6.760;2023-02-28T08:34:45;102326.19;;;0.73;62.69
70015;BME280;57358;51.094;6.760;2023-02-28T08:37:13;102097.38;;;-0.35;62.02
70015;BME280;57358;51.094;6.760;2023-02-28T08:39:39;102178.09;;;0.80;59.52
70015;BME280;57358;51.094;6.760;2023-02-28T08:42:06;102073.59;;;0.53;57.68
70015;BME280;57358;51.094;6.760;2023-02-28T08:44:33;102109.47;;;1.08;57.06
70015;BME280;57358;51.094;6.760;2023-02-28T08:47:00;102043.75;;;0.78;56.41
70015;BME280;57358;51.094;6.760;2023-02-28T08:49:26;102044.03;;;1.11;55.89
70015;BME280;57358;51.094;6.760;2023-02-28T08:51:53;102010.50;;;1.22;54.38
70015;BME280;57358;51.094;6.760;2023-02-28T08:54:20;101970.03;;;1.30;54.16
70015;BME280;57358;51.094;6.760;2023-02-28T08:56:47;101949.31;;;1.28;53.16
70015;BME280;57358;51.094;6.760;2023-02-28T08:59:14;101964.94;;;1.41;53.08
70015;BME280;57358;51.094;6.760;2023-02-28T09:01:41;101977.06;;;1.52;53.18
70015;BME280;57358;51.094;6.760;2023-02-28T09:04:08;101845.78;;;1.08;52.41
70015;BME280;57358;51.094;6.760;2023-02-28T09:06:36;101855.47;;;1.49;51.85
70015;BME280;57358;51.094;6.760;2023-02-28T09:09:03;101890.81;;;1.50;52.29
70015;BME280;57358;51.094;6.760;2023-02-28T09:11:32;101917.56;;;1.45;52.54
70015;BME280;57358;51.094;6.760;2023-02-28T09:13:58;101877.09;;;1.68;50.83
70015;BME280;57358;51.094;6.760;2023-02-28T09:16:30;101897.91;;;1.93;51.18
70015;BME280;57358;51.094;6.760;2023-02-28T09:18:58;101925.53;;;2.06;51.79
70015;BME280;57358;51.094;6.760;2023-02-28T09:21:25;101847.88;;;1.97;50.69
70015;BME280;57358;51.094;6.760;2023-02-28T09:23:52;101796.91;;;1.94;49.54
70015;BME280;57358;51.094;6.760;2023-02-28T09:26:23;101663.22;;;1.75;48.40
70015;BME280;57358;51.094;6.760;2023-02-28T09:28:51;101705.44;;;2.22;47.50
70015;BME280;57358;51.094;6.760;2023-02-28T09:31:23;101717.56;;;2.15;47.99
70015;BME280;57358;51.094;6.760;2023-02-28T09:33:52;101689.91;;;2.25;47.31
70015;BME280;57358;51.094;6.760;2023-02-28T09:36:21;101717.50;;;2.36;47.16
70015;BME280;57358;51.094;6.760;2023-02-28T09:38:50;101706.28;;;2.34;47.25
70015;BME280;57358;51.094;6.760;2023-02-28T09:41:22;101732.19;;;2.37;47.86
70015;BME280;57358;51.094;6.760;2023-02-28T09:43:55;101755.53;;;2.25;49.04
70015;BME280;57358;51.094;6.760;2023-02-28T09:46:32;101774.47;;;2.69;47.88
70015;BME280;57358;51.094;6.760;2023-02-28T09:49:05;101768.41;;;2.60;48.37
70015;BME280;57358;51.094;6.760;2023-02-28T09:51:40;101613.97;;;2.13;46.83
70015;BME280;57358;51.094;6.760;2023-02-28T09:54:15;101680.31;;;2.67;47.43
70015;BME280;57358;51.094;6.760;2023-02-28T09:56:50;101694.06;;;2.81;47.41
70015;BME280;57358;51.094;6.760;2023-02-28T10:05:20;101664.81;;;2.53;47.13
70015;BME280;57358;51.094;6.760;2023-02-28T10:07:55;101727.81;;;2.67;47.84
70015;BME280;57358;51.094;6.760;2023-02-28T10:10:34;101686.34;;;2.56;47.47
70015;BME280;57358;51.094;6.760;2023-02-28T10:13:11;101712.31;;;2.46;48.68
70015;BME280;57358;51.094;6.760;2023-02-28T10:15:40;101629.44;;;2.41;47.46
70015;BME280;57358;51.094;6.760;2023-02-28T10:18:12;101671.59;;;2.80;47.79
70015;BME280;57358;51.094;6.760;2023-02-28T10:20:42;101649.09;;;2.88;47.22
70015;BME280;57358;51.094;6.760;2023-02-28T10:23:26;101619.75;;;2.82;47.55
70015;BME280;57358;51.094;6.760;2023-02-28T10:26:13;101669.97;;;2.57;47.62
70015;BME280;57358;51.094;6.760;2023-02-28T10:28:42;101680.28;;;2.73;47.94
70015;BME280;57358;51.094;6.760;2023-02-28T10:31:18;101745.03;;;2.84;48.70
70015;BME280;57358;51.094;6.760;2023-02-28T10:33:45;101743.34;;;2.75;48.76
70015;BME280;57358;51.094;6.760;2023-02-28T10:36:14;101727.75;;;2.89;48.49
70015;BME280;57358;51.094;6.760;2023-02-28T10:38:44;101806.34;;;2.98;50.06
70015;BME280;57358;51.094;6.760;2023-02-28T10:41:14;101777.81;;;3.03;49.68
70015;BME280;57358;51.094;6.760;2023-02-28T10:43:44;101707.00;;;2.87;48.72
70015;BME280;57358;51.094;6.760;2023-02-28T10:46:15;101774.31;;;3.12;49.65
70015;BME280;57358;51.094;6.760;2023-02-28T10:49:03;101785.44;;;3.43;49.40
70015;BME280;57358;51.094;6.760;2023-02-28T10:51:37;101679.25;;;3.11;48.13
70015;BME280;57358;51.094;6.760;2023-02-28T10:54:04;101833.84;;;3.46;49.26
70015;BME280;57358;51.094;6.760;2023-02-28T10:56:31;101804.53;;;3.25;49.30
70015;BME280;57358;51.094;6.760;2023-02-28T11:03:58;101744.06;;;3.12;49.54
70015;BME280;57358;51.094;6.760;2023-02-28T11:06:33;101664.69;;;2.77;49.40
70015;BME280;57358;51.094;6.760;2023-02-28T11:09:02;101711.19;;;3.14;48.86
70015;BME280;57358;51.094;6.760;2023-02-28T11:11:31;101746.63;;;3.18;50.16
70015;BME280;57358;51.094;6.760;2023-02-28T11:14:19;101594.13;;;2.08;49.76
70015;BME280;57358;51.094;6.760;2023-02-28T11:16:46;101716.56;;;2.68;50.37
70015;BME280;57358;51.094;6.760;2023-02-28T11:19:20;101682.94;;;2.40;50.34
70015;BME280;57358;51.094;6.760;2023-02-28T11:21:54;101839.22;;;2.84;51.17
70015;BME280;57358;51.094;6.760;2023-02-28T11:24:28;101840.94;;;2.97;51.45
70015;BME280;57358;51.094;6.760;2023-02-28T11:26:56;101717.47;;;2.58;50.29
70015;BME280;57358;51.094;6.760;2023-02-28T11:29:24;101787.38;;;2.81;51.03
70015;BME280;57358;51.094;6.760;2023-02-28T11:34:27;101853.88;;;3.07;50.57
70015;BME280;57358;51.094;6.760;2023-02-28T11:36:56;101771.88;;;2.56;52.24
70015;BME280;57358;51.094;6.760;2023-02-28T11:39:24;101747.72;;;2.40;51.18
70015;BME280;57358;51.094;6.760;2023-02-28T11:47:44;101808.00;;;3.27;49.45
70015;BME280;57358;51.094;6.760;2023-02-28T11:50:20;101822.63;;;3.45;50.68
70015;BME280;57358;51.094;6.760;2023-02-28T11:52:53;101773.47;;;3.08;50.31
70015;BME280;57358;51.094;6.760;2023-02-28T11:55:26;101697.50;;;2.91;49.12
70015;BME280;57358;51.094;6.760;2023-02-28T11:58:49;101735.19;;;3.49;48.17
70015;BME280;57358;51.094;6.760;2023-02-28T12:01:03;101675.69;;;3.27;47.79
70015;BME280;57358;51.094;6.760;2023-02-28T12:06:40;101759.44;;;3.45;49.67
70015;BME280;57358;51.094;6.760;2023-02-28T12:09:34;101756.06;;;3.32;49.58
70015;BME280;57358;51.094;6.760;2023-02-28T12:12:15;101672.28;;;3.14;48.84
70015;BME280;57358;51.094;6.760;2023-02-28T12:15:13;101602.56;;;2.67;49.46
70015;BME280;57358;51.094;6.760;2023-02-28T12:17:55;101767.91;;;3.77;48.56
70015;BME280;57358;51.094;6.760;2023-02-28T12:20:34;101637.63;;;3.25;48.45
70015;BME280;57358;51.094;6.760;2023-02-28T12:26:07;101570.44;;;2.88;48.15
70015;BME280;57358;51.094;6.760;2023-02-28T12:28:42;101579.13;;;2.87;48.08
70015;BME280;57358;51.094;6.760;2023-02-28T12:32:01;101538.66;;;2.58;47.89
70015;BME280;57358;51.094;6.760;2023-02-28T12:34:43;101659.13;;;3.44;47.37
70015;BME280;57358;51.094;6.760;2023-02-28T12:37:17;101706.47;;;3.78;47.09
70015;BME280;57358;51.094;6.760;2023-02-28T12:39:50;101661.47;;;3.76;47.98
70015;BME280;57358;51.094;6.760;2023-02-28T12:42:30;101679.47;;;3.96;47.11
70015;BME280;57358;51.094;6.760;2023-02-28T12:45:10;101472.09;;;2.69;47.23
70015;BME280;57358;51.094;6.760;2023-02-28T12:47:40;101676.88;;;3.99;47.90
70015;BME280;57358;51.094;6.760;2023-02-28T12:50:10;101772.78;;;4.20;47.90
70015;BME280;57358;51.094;6.760;2023-02-28T12:53:02;101654.25;;;4.09;47.03
70015;BME280;57358;51.094;6.760;2023-02-28T12:55:49;101670.38;;;4.42;46.05
70015;BME280;57358;51.094;6.760;2023-02-28T12:58:49;101575.28;;;4.24;45.17
70015;BME280;57358;51.094;6.760;2023-02-28T13:01:28;101637.69;;;4.92;45.71
70015;BME280;57358;51.094;6.760;2023-02-28T13:06:40;101633.91;;;5.13;45.06
70015;BME280;57358;51.094;6.760;2023-02-28T13:09:15;101560.41;;;4.98;44.44
70015;BME280;57358;51.094;6.760;2023-02-28T13:11:49;101502.25;;;5.03;43.25
70015;BME280;57358;51.094;6.760;2023-02-28T13:14:27;101552.59;;;5.00;43.46
70015;BME280;57358;51.094;6.760;2023-02-28T13:17:10;101583.28;;;4.76;45.09
70015;BME280;57358;51.094;6.760;2023-02-28T13:19:44;101615.47;;;4.68;45.52
70015;BME280;57358;51.094;6.760;2023-02-28T13:22:36;101585.22;;;4.60;46.08
70015;BME280;57358;51.094;6.760;2023-02-28T13:27:48;101621.53;;;4.67;45.86
70015;BME280;57358;51.094;6.760;2023-02-28T13:33:28;101675.97;;;4.79;47.18
70015;BME280;57358;51.094;6.760;2023-02-28T13:38:43;101528.03;;;4.59;44.73
70015;BME280;57358;51.094;6.760;2023-02-28T13:44:09;101547.63;;;4.85;44.12
70015;BME280;57358;51.094;6.760;2023-02-28T13:51:54;101411.72;;;4.16;43.20
70015;BME280;57358;51.094;6.760;2023-02-28T13:54:48;101527.69;;;5.39;42.72
70015;BME280;57358;51.094;6.760;2023-02-28T14:03:46;101506.59;;;5.53;43.12
70015;BME280;57358;51.094;6.760;2023-02-28T14:06:29;101440.28;;;5.25;41.88
70015;BME280;57358;51.094;6.760;2023-02-28T14:11:39;101526.34;;;5.15;43.92
70015;BME280;57358;51.094;6.760;2023-02-28T14:14:09;101532.53;;;5.07;43.63
70015;BME280;57358;51.094;6.760;2023-02-28T14:16:41;101445.41;;;4.79;43.41
70015;BME280;57358;51.094;6.760;2023-02-28T14:19:11;101524.41;;;5.27;43.68
70015;BME280;57358;51.094;6.760;2023-02-28T14:21:48;101516.03;;;5.09;43.60
70015;BME280;57358;51.094;6.760;2023-02-28T14:24:42;101541.22;;;5.57;42.50
70015;BME280;57358;51.094;6.760;2023-02-28T14:30:37;101516.44;;;5.37;42.89
70015;BME280;57358;51.094;6.760;2023-02-28T14:38:28;101490.31;;;5.42;42.67
70015;BME280;57358;51.094;6.760;2023-02-28T14:40:57;101462.38;;;5.52;42.09
70015;BME280;57358;51.094;6.760;2023-02-28T14:43:27;101502.53;;;5.37;42.61
70015;BME280;57358;51.094;6.760;2023-02-28T14:45:56;101527.13;;;5.19;43.77